createdAt,value
2022-07-30T00:00:55.574Z,18.12
2022-07-30T00:03:24.164Z,18.12
2022-07-30T00:05:56.432Z,18.09
2022-07-30T00:08:48.153Z,18.06
2022-07-30T00:11:27.225Z,18.03
2022-07-30T00:14:30.112Z,18.00
2022-07-30T00:17:13.116Z,18.00
2022-07-30T00:20:13.968Z,17.98
2022-07-30T00:22:54.360Z,18.00
2022-07-30T00:25:37.072Z,17.97
2022-07-30T00:29:10.692Z,17.95
2022-07-30T00:33:00.392Z,17.89
2022-07-30T00:36:49.235Z,17.79
2022-07-30T00:40:38.239Z,17.70
2022-07-30T00:44:27.340Z,17.64
2022-07-30T00:48:16.478Z,17.58
2022-07-30T00:52:05.278Z,17.56
2022-07-30T00:55:54.310Z,17.53
2022-07-30T00:59:43.515Z,17.47
2022-07-30T01:03:32.295Z,17.41
2022-07-30T01:07:21.404Z,17.33
2022-07-30T01:11:13.242Z,17.26
2022-07-30T01:15:02.410Z,17.20
2022-07-30T01:18:51.773Z,17.15
2022-07-30T01:22:49.817Z,17.09
2022-07-30T01:26:51.157Z,17.05
2022-07-30T01:30:40.330Z,17.00
2022-07-30T01:34:29.804Z,16.99
2022-07-30T01:38:18.933Z,16.98
2022-07-30T01:41:03.960Z,16.94
2022-07-30T01:44:23.792Z,16.93
2022-07-30T01:48:13.372Z,16.92
2022-07-30T01:51:18.855Z,16.90
2022-07-30T01:54:24.796Z,16.84
2022-07-30T01:57:56.304Z,16.79
2022-07-30T02:00:58.947Z,16.78
2022-07-30T02:03:30.351Z,16.73
2022-07-30T02:06:35.002Z,16.73
2022-07-30T02:10:07.531Z,16.76
2022-07-30T02:13:02.410Z,16.78
2022-07-30T02:16:00.209Z,16.77
2022-07-30T02:19:06.049Z,16.75
2022-07-30T02:22:33.476Z,16.70
2022-07-30T02:26:10.170Z,16.66
2022-07-30T02:29:36.594Z,16.67
2022-07-30T02:33:26.296Z,16.66
2022-07-30T02:36:59.837Z,16.64
2022-07-30T02:40:50.523Z,16.64
2022-07-30T02:44:40.090Z,16.66
2022-07-30T02:48:44.575Z,16.68
2022-07-30T02:52:33.761Z,16.69
2022-07-30T02:56:26.884Z,16.68
2022-07-30T03:00:17.999Z,16.70
2022-07-30T03:04:07.162Z,16.72
2022-07-30T03:07:59.312Z,16.78
2022-07-30T03:11:48.384Z,16.85
2022-07-30T03:15:39.451Z,16.87
2022-07-30T03:19:29.217Z,16.90
2022-07-30T03:23:25.749Z,16.92
2022-07-30T03:27:20.955Z,16.94
2022-07-30T03:31:11.909Z,16.96
2022-07-30T03:35:16.973Z,17.00
2022-07-30T03:39:11.296Z,17.06
2022-07-30T03:43:01.068Z,17.09
2022-07-30T03:46:56.796Z,17.13
2022-07-30T03:50:46.517Z,17.15
2022-07-30T03:54:35.930Z,17.15
2022-07-30T03:58:23.473Z,17.18
2022-07-30T04:02:23.261Z,17.23
2022-07-30T04:06:11.209Z,17.26
2022-07-30T04:10:01.790Z,17.26
2022-07-30T04:13:51.504Z,17.28
2022-07-30T04:17:45.583Z,17.32
2022-07-30T04:21:42.027Z,17.35
2022-07-30T04:25:37.405Z,17.39
2022-07-30T04:29:26.859Z,17.42
2022-07-30T04:31:58.491Z,17.46
2022-07-30T04:34:55.531Z,17.49
2022-07-30T04:37:59.445Z,17.51
2022-07-30T04:40:33.917Z,17.55
2022-07-30T04:43:15.869Z,17.59
2022-07-30T04:46:01.494Z,17.62
2022-07-30T04:48:38.868Z,17.67
2022-07-30T04:51:17.126Z,17.70
2022-07-30T04:54:30.275Z,17.74
2022-07-30T04:58:10.380Z,17.78
2022-07-30T05:01:24.157Z,17.88
2022-07-30T05:04:15.299Z,17.92
2022-07-30T05:08:04.209Z,17.99
2022-07-30T05:11:04.060Z,18.10
2022-07-30T05:13:48.446Z,18.11
2022-07-30T05:16:29.719Z,18.14
2022-07-30T05:19:21.077Z,18.19
2022-07-30T05:21:55.639Z,18.20
2022-07-30T05:25:26.196Z,18.25
2022-07-30T05:29:00.411Z,18.27
2022-07-30T05:32:02.489Z,18.32
2022-07-30T05:34:50.105Z,18.35
2022-07-30T05:37:29.766Z,18.46
2022-07-30T05:40:34.587Z,18.48
2022-07-30T05:43:25.447Z,18.54
2022-07-30T05:46:29.363Z,18.57
2022-07-30T05:48:58.154Z,18.64
2022-07-30T05:51:47.974Z,18.64
2022-07-30T05:59:50.961Z,18.98
2022-07-30T06:03:43.731Z,19.11
2022-07-30T06:06:40.786Z,19.24
2022-07-30T06:10:16.303Z,19.29
2022-07-30T06:13:55.942Z,19.45
2022-07-30T06:17:44.902Z,19.63
2022-07-30T06:22:05.808Z,19.73
2022-07-30T06:25:11.312Z,19.89
2022-07-30T06:28:38.481Z,20.08
2022-07-30T06:32:28.073Z,20.18
2022-07-30T06:36:01.371Z,20.34
2022-07-30T06:39:15.541Z,20.56
2022-07-30T06:43:35.494Z,20.61
2022-07-30T06:47:29.024Z,20.68
2022-07-30T06:50:56.677Z,20.54
2022-07-30T06:54:27.125Z,20.65
2022-07-30T06:57:28.629Z,20.89
2022-07-30T07:01:10.990Z,21.03
2022-07-30T07:04:53.030Z,21.31
2022-07-30T07:08:09.161Z,21.20
2022-07-30T07:11:33.373Z,21.38
2022-07-30T07:14:26.977Z,21.39
2022-07-30T07:17:46.614Z,21.62
2022-07-30T07:20:52.424Z,21.78
2022-07-30T07:23:48.673Z,22.00
2022-07-30T07:27:38.950Z,22.33
2022-07-30T07:31:06.980Z,22.31
2022-07-30T07:34:49.421Z,22.54
2022-07-30T07:37:53.431Z,22.58
2022-07-30T07:41:28.351Z,22.53
2022-07-30T07:44:52.912Z,22.73
2022-07-30T07:48:46.603Z,22.64
2022-07-30T07:52:55.951Z,22.63
2022-07-30T07:56:29.312Z,22.63
2022-07-30T07:59:52.900Z,22.69
2022-07-30T08:02:38.870Z,22.84
2022-07-30T08:05:58.057Z,23.04
2022-07-30T08:09:03.974Z,22.79
2022-07-30T08:12:20.517Z,22.83
2022-07-30T08:16:00.488Z,22.89
2022-07-30T08:19:00.616Z,22.86
2022-07-30T08:22:00.146Z,22.81
2022-07-30T08:25:22.146Z,23.08
2022-07-30T08:28:54.564Z,23.03
2022-07-30T08:32:33.542Z,23.27
2022-07-30T08:36:25.763Z,23.23
2022-07-30T08:39:27.706Z,23.08
2022-07-30T08:42:48.050Z,22.97
2022-07-30T08:45:34.679Z,22.91
2022-07-30T08:49:15.764Z,22.80
2022-07-30T08:53:09.878Z,22.81
2022-07-30T08:56:35.610Z,22.86
2022-07-30T09:00:01.181Z,22.77
2022-07-30T09:02:39.457Z,22.68
2022-07-30T09:05:24.983Z,22.56
2022-07-30T09:08:09.029Z,22.33
2022-07-30T09:11:14.608Z,22.24
2022-07-30T09:14:44.113Z,22.09
2022-07-30T09:17:13.098Z,21.67
2022-07-30T09:20:09.532Z,21.21
2022-07-30T09:23:07.076Z,20.99
2022-07-30T09:26:19.925Z,20.99
2022-07-30T09:29:52.220Z,21.06
2022-07-30T09:33:51.767Z,21.13
2022-07-30T09:37:37.908Z,21.26
2022-07-30T09:41:41.469Z,21.42
2022-07-30T09:45:19.389Z,21.51
2022-07-30T09:49:09.429Z,21.64
2022-07-30T09:53:00.149Z,21.67
2022-07-30T09:57:05.098Z,21.35
2022-07-30T10:00:58.584Z,20.99
2022-07-30T10:04:49.527Z,20.69
2022-07-30T10:08:38.426Z,20.52
2022-07-30T10:12:30.200Z,20.51
2022-07-30T10:16:21.700Z,20.33
2022-07-30T10:20:13.202Z,20.54
2022-07-30T10:24:12.608Z,20.59
2022-07-30T10:28:11.309Z,20.42
2022-07-30T10:32:03.882Z,20.20
2022-07-30T10:35:54.301Z,20.19
2022-07-30T10:39:44.657Z,20.21
2022-07-30T10:43:55.776Z,20.25
2022-07-30T10:47:44.928Z,20.15
2022-07-30T10:51:38.769Z,19.79
2022-07-30T10:55:37.375Z,19.50
2022-07-30T11:02:48.578Z,19.47
2022-07-30T11:06:24.104Z,19.35
2022-07-30T11:10:22.908Z,19.31
2022-07-30T11:14:09.981Z,19.31
2022-07-30T11:18:01.485Z,19.37
2022-07-30T11:21:31.368Z,19.41
2022-07-30T11:25:25.685Z,19.45
2022-07-30T11:29:50.930Z,19.51
2022-07-30T11:33:18.642Z,19.51
2022-07-30T11:37:01.678Z,19.50
2022-07-30T11:41:08.276Z,19.46
2022-07-30T11:44:20.249Z,19.41
2022-07-30T11:47:51.181Z,19.35
2022-07-30T11:50:55.094Z,19.29
2022-07-30T11:53:31.886Z,19.20
2022-07-30T11:56:01.521Z,19.15
2022-07-30T11:59:02.227Z,19.03
2022-07-30T12:01:40.073Z,18.93
2022-07-30T12:04:11.244Z,18.87
2022-07-30T12:07:05.618Z,18.79
2022-07-30T12:09:45.620Z,18.65
2022-07-30T12:12:30.898Z,18.46
2022-07-30T12:15:17.630Z,18.24
2022-07-30T12:18:11.094Z,18.43
2022-07-30T12:21:18.377Z,19.19
2022-07-30T12:24:00.886Z,19.02
2022-07-30T12:27:07.811Z,19.00
2022-07-30T12:29:53.098Z,19.05
2022-07-30T12:32:36.230Z,18.91
2022-07-30T12:35:07.337Z,19.01
2022-07-30T12:37:40.189Z,18.86
2022-07-30T12:40:22.196Z,18.77
2022-07-30T12:43:13.980Z,18.74
2022-07-30T12:46:06.030Z,18.49
2022-07-30T12:48:47.996Z,19.14
2022-07-30T12:51:21.649Z,21.44
2022-07-30T12:53:53.136Z,20.21
2022-07-30T12:57:22.156Z,22.35
2022-07-30T13:00:17.587Z,21.62
2022-07-30T13:03:29.720Z,21.51
2022-07-30T13:06:53.929Z,21.51
2022-07-30T13:09:22.077Z,21.14
2022-07-30T13:12:12.121Z,21.27
2022-07-30T13:14:42.127Z,21.43
2022-07-30T13:17:37.679Z,21.18
2022-07-30T13:20:46.300Z,21.28
2022-07-30T13:23:43.182Z,21.32
2022-07-30T13:26:51.992Z,21.22
2022-07-30T13:30:40.370Z,21.61
2022-07-30T13:33:53.320Z,21.48
2022-07-30T13:37:07.991Z,21.49
2022-07-30T13:40:16.678Z,21.71
2022-07-30T13:43:39.876Z,21.84
2022-07-30T13:47:09.806Z,21.77
2022-07-30T13:49:51.433Z,21.68
2022-07-30T13:52:42.941Z,21.45
2022-07-30T13:56:01.885Z,21.39
2022-07-30T13:59:34.454Z,21.25
2022-07-30T14:02:26.222Z,21.39
2022-07-30T14:05:08.223Z,21.54
2022-07-30T14:08:09.400Z,21.37
2022-07-30T14:10:58.410Z,21.39
2022-07-30T14:13:58.011Z,21.27
2022-07-30T14:16:57.181Z,21.17
2022-07-30T14:20:05.243Z,21.27
2022-07-30T14:22:58.392Z,21.16
2022-07-30T14:26:09.555Z,20.99
2022-07-30T14:29:57.556Z,21.11
2022-07-30T14:33:39.878Z,21.23
2022-07-30T14:36:13.705Z,21.26
2022-07-30T14:39:33.811Z,21.27
2022-07-30T14:42:56.786Z,21.04
2022-07-30T14:46:02.431Z,21.10
2022-07-30T14:49:18.036Z,21.02
2022-07-30T14:52:45.735Z,20.85
2022-07-30T14:55:35.878Z,20.80
2022-07-30T14:58:34.960Z,20.95
2022-07-30T15:01:16.272Z,21.13
2022-07-30T15:03:45.187Z,21.04
2022-07-30T15:06:28.235Z,21.09
2022-07-30T15:09:27.996Z,21.07
2022-07-30T15:12:23.735Z,21.31
2022-07-30T15:15:18.501Z,21.23
2022-07-30T15:18:12.931Z,20.98
2022-07-30T15:21:40.367Z,20.94
2022-07-30T15:24:48.715Z,20.88
2022-07-30T15:28:03.856Z,20.97
2022-07-30T15:31:31.380Z,20.78
2022-07-30T15:34:35.139Z,20.73
2022-07-30T15:37:18.384Z,20.96
2022-07-30T15:40:45.551Z,20.74
2022-07-30T15:44:17.757Z,23.72
2022-07-30T15:47:48.157Z,22.45
2022-07-30T15:51:29.694Z,22.26
2022-07-30T15:54:36.959Z,22.47
2022-07-30T15:58:25.286Z,22.52
2022-07-30T16:02:12.620Z,22.36
2022-07-30T16:04:44.519Z,22.23
2022-07-30T16:08:21.803Z,22.19
2022-07-30T16:12:02.731Z,21.93
2022-07-30T16:15:08.576Z,22.17
2022-07-30T16:18:15.922Z,22.18
2022-07-30T16:20:54.214Z,22.02
2022-07-30T16:23:55.411Z,21.94
2022-07-30T16:27:05.849Z,21.82
2022-07-30T16:30:03.057Z,21.64
2022-07-30T16:33:11.443Z,21.67
2022-07-30T16:36:32.878Z,21.63
2022-07-30T16:39:40.238Z,21.75
2022-07-30T16:42:31.045Z,21.82
2022-07-30T16:46:09.609Z,21.96
2022-07-30T16:49:38.547Z,21.93
2022-07-30T16:52:11.456Z,21.85
2022-07-30T16:55:19.196Z,21.89
2022-07-30T16:58:08.948Z,21.88
2022-07-30T17:01:01.203Z,21.90
2022-07-30T17:04:30.058Z,21.91
2022-07-30T17:08:06.143Z,21.91
2022-07-30T17:11:51.988Z,21.87
2022-07-30T17:14:40.452Z,21.83
2022-07-30T17:17:28.835Z,21.76
2022-07-30T17:20:29.262Z,21.69
2022-07-30T17:23:38.855Z,21.60
2022-07-30T17:26:34.938Z,21.51
2022-07-30T17:29:49.929Z,21.48
2022-07-30T17:32:35.459Z,21.55
2022-07-30T17:35:45.291Z,21.53
2022-07-30T17:38:19.957Z,21.66
2022-07-30T17:41:10.549Z,21.53
2022-07-30T17:44:03.123Z,21.43
2022-07-30T17:46:53.770Z,21.41
2022-07-30T17:49:56.713Z,21.51
2022-07-30T17:52:27.369Z,21.60
2022-07-30T17:55:15.578Z,21.47
2022-07-30T17:57:51.271Z,21.42
2022-07-30T18:00:25.863Z,21.43
2022-07-30T18:02:56.033Z,21.40
2022-07-30T18:05:30.179Z,21.54
2022-07-30T18:08:52.053Z,21.55
2022-07-30T18:11:19.509Z,21.50
2022-07-30T18:13:53.576Z,21.32
2022-07-30T18:16:25.765Z,21.44
2022-07-30T18:18:56.667Z,21.35
2022-07-30T18:21:25.559Z,21.23
2022-07-30T18:24:07.416Z,21.28
2022-07-30T18:26:42.661Z,21.44
2022-07-30T18:29:14.028Z,21.41
2022-07-30T18:31:43.576Z,21.42
2022-07-30T18:34:15.662Z,21.44
2022-07-30T18:36:55.004Z,21.50
2022-07-30T18:39:45.339Z,21.46
2022-07-30T18:42:15.817Z,21.36
2022-07-30T18:44:48.115Z,21.33
2022-07-30T18:47:27.465Z,21.31
2022-07-30T18:50:13.711Z,21.41
2022-07-30T18:52:48.087Z,21.43
2022-07-30T18:55:20.727Z,21.42
2022-07-30T18:57:52.501Z,21.34
2022-07-30T19:01:00.596Z,21.20
2022-07-30T19:03:33.321Z,21.48
2022-07-30T19:06:03.271Z,21.37
2022-07-30T19:08:41.120Z,21.25
2022-07-30T19:11:14.647Z,21.29
2022-07-30T19:13:42.678Z,21.40
2022-07-30T19:16:16.131Z,21.39
2022-07-30T19:19:05.630Z,21.31
2022-07-30T19:22:04.190Z,21.32
2022-07-30T19:25:15.698Z,21.17
2022-07-30T19:28:17.247Z,21.21
2022-07-30T19:31:07.262Z,21.15
2022-07-30T19:33:54.256Z,21.20
2022-07-30T19:36:44.144Z,21.20
2022-07-30T19:39:35.021Z,21.18
2022-07-30T19:42:13.903Z,21.22
2022-07-30T19:44:46.223Z,21.09
2022-07-30T19:47:43.388Z,21.03
2022-07-30T19:50:59.482Z,21.18
2022-07-30T19:54:10.524Z,21.13
2022-07-30T19:57:53.475Z,21.21
2022-07-30T20:01:08.310Z,21.20
2022-07-30T20:04:30.064Z,21.09
2022-07-30T20:07:58.358Z,21.26
2022-07-30T20:10:57.544Z,21.13
2022-07-30T20:14:13.121Z,21.28
2022-07-30T20:20:29.084Z,21.20
2022-07-30T20:23:37.523Z,21.14
2022-07-30T20:27:36.204Z,21.09
2022-07-30T20:31:04.202Z,21.10
2022-07-30T20:34:34.164Z,21.13
2022-07-30T20:38:21.773Z,21.00
2022-07-30T20:41:35.770Z,21.00
2022-07-30T20:45:24.999Z,21.01
2022-07-30T20:48:42.185Z,21.06
2022-07-30T20:52:24.974Z,20.91
2022-07-30T20:56:14.915Z,21.00
2022-07-30T20:59:37.022Z,20.94
2022-07-30T21:03:21.745Z,20.88
2022-07-30T21:06:34.850Z,20.92
2022-07-30T21:10:12.576Z,20.92
2022-07-30T21:14:03.042Z,20.98
2022-07-30T21:17:51.524Z,20.94
2022-07-30T21:21:47.910Z,20.83
2022-07-30T21:25:36.206Z,20.95
2022-07-30T21:29:44.648Z,20.99
2022-07-30T21:32:37.030Z,21.12
2022-07-30T21:36:05.108Z,21.17
2022-07-30T21:39:59.354Z,21.17
2022-07-30T21:42:48.172Z,21.14
2022-07-30T21:46:27.119Z,21.12
2022-07-30T21:49:14.725Z,21.19
2022-07-30T21:51:44.861Z,21.36
2022-07-30T21:54:48.207Z,21.36
2022-07-30T21:57:45.945Z,21.20
2022-07-30T22:00:25.805Z,21.12
2022-07-30T22:04:04.068Z,21.11
2022-07-30T22:07:15.756Z,21.08
2022-07-30T22:10:41.777Z,21.17
2022-07-30T22:13:53.679Z,21.13
2022-07-30T22:17:36.807Z,21.31
2022-07-30T22:21:05.983Z,21.39
2022-07-30T22:24:07.773Z,21.43
2022-07-30T22:27:55.929Z,21.27
2022-07-30T22:31:14.265Z,21.30
2022-07-30T22:34:11.287Z,21.24
2022-07-30T22:37:24.620Z,21.35
2022-07-30T22:40:44.871Z,21.29
2022-07-30T22:43:23.014Z,21.34
2022-07-30T22:47:00.816Z,21.33
2022-07-30T22:49:55.206Z,21.32
2022-07-30T22:54:10.543Z,21.46
2022-07-30T22:57:30.034Z,21.40
2022-07-30T23:00:28.054Z,21.25
2022-07-30T23:04:16.252Z,20.99
2022-07-30T23:07:49.029Z,20.93
2022-07-30T23:10:39.352Z,20.86
2022-07-30T23:12:17.113Z,21.23
2022-07-30T23:14:07.715Z,20.82
2022-07-30T23:17:30.287Z,20.85
2022-07-30T23:20:27.126Z,20.91
2022-07-30T23:23:56.264Z,20.92
2022-07-30T23:27:05.477Z,21.09
2022-07-30T23:30:02.755Z,20.98
2022-07-30T23:33:05.837Z,20.98
2022-07-30T23:36:27.816Z,21.01
2022-07-30T23:39:04.394Z,20.81
2022-07-30T23:42:14.767Z,20.78
2022-07-30T23:45:53.861Z,20.81
2022-07-30T23:48:45.908Z,20.73
2022-07-30T23:51:41.532Z,20.74
2022-07-30T23:54:39.644Z,20.70
2022-07-30T23:57:57.966Z,20.74
